Souda — SVBH5 — position and weather

sailwx.info

Track history (hours):
 
Tides and Currents Weather Stations Pressure Air Temp Water Temp Dewpoint Dewpoint Depression Visibility Wind Speed Wind Dir Waves Ship Positions

Souda

Last reported at 2017-Mar-23 18:11 UTC. Time now 2017-Mar-30 00:48 UTC.
Position N 39°49' E 024°18'.

Length 88 m; draft 4.8 m.

Type: Tanker. MMSI: 241109000.

Date/timePositionNaut miles runAvg speedWind from/ knotsBaromVisibWave heightAir tempDewpointWater temp
2017-Mar-23 18:11N 39°49' E 024°18'6 9.0
2017-Mar-23 17:32N 39°50' E 024°10'9 9.5
2017-Mar-23 16:33N 39°51' E 023°59'10 9.3
2017-Mar-23 15:30N 39°52' E 023°46'  
2017-Mar-20 14:19N 37°43' E 023°41'6 8.3
2017-Mar-20 13:33N 37°48' E 023°36'9 8.4
2017-Mar-20 12:33N 37°50' E 023°26'8 8.2
2017-Mar-20 11:33N 37°52' E 023°16'9 0.4
2017-Mar-19 11:32N 37°55' E 023°05'0 0.1
2017-Mar-19 10:32N 37°55' E 023°05'1 0.8
2017-Mar-19 09:31N 37°55' E 023°06'0 0.0
2017-Mar-19 08:31N 37°55' E 023°06'0 0.0
2017-Mar-19 07:33N 37°55' E 023°06'0 0.1
2017-Mar-19 06:33N 37°55' E 023°06'0 0.1
2017-Mar-19 05:33N 37°55' E 023°06'0 0.0
2017-Mar-19 04:33N 37°55' E 023°06'0 0.0
2017-Mar-19 03:33N 37°55' E 023°06'0 0.0
2017-Mar-19 02:33N 37°55' E 023°06'0 0.0
2017-Mar-19 01:30N 37°55' E 023°06'0 0.0
2017-Mar-19 00:33N 37°55' E 023°06'0 0.0
2017-Mar-18 23:30N 37°55' E 023°06'0 0.0
2017-Mar-18 22:33N 37°55' E 023°06'0 0.0
2017-Mar-18 21:30N 37°55' E 023°06'0 0.0
2017-Mar-18 20:27N 37°55' E 023°06'0 0.0
2017-Mar-18 19:33N 37°55' E 023°06'0 0.1
2017-Mar-18 18:33N 37°55' E 023°06'0 0.0
2017-Mar-18 16:27N 37°55' E 023°06'0 0.0
2017-Mar-17 07:27N 37°55' E 023°06'0 0.0
2017-Mar-17 06:13N 37°55' E 023°06'0 0.0
2017-Mar-17 05:22N 37°55' E 023°06'0 0.0
2017-Mar-17 04:14N 37°55' E 023°06'0 0.0
2017-Mar-17 03:30N 37°55' E 023°06'0 0.0
2017-Mar-17 02:24N 37°55' E 023°06'0 0.0
2017-Mar-17 01:10N 37°55' E 023°06'0 0.1
2017-Mar-17 00:33N 37°55' E 023°06'0 0.0
2017-Mar-16 23:30N 37°55' E 023°06'0 0.0
2017-Mar-16 19:21N 37°55' E 023°06'0 0.0
2017-Mar-16 15:27N 37°55' E 023°06'0 0.1
2017-Mar-16 14:28N 37°55' E 023°06'0 0.0
2017-Mar-16 08:18N 37°55' E 023°06'0 0.0
2017-Mar-16 06:26N 37°55' E 023°06'0 0.0
2017-Mar-16 05:32N 37°55' E 023°06'0 0.0
2017-Mar-16 04:31N 37°55' E 023°06'0 0.0
2017-Mar-16 03:29N 37°55' E 023°06'0 0.0
2017-Mar-16 02:24N 37°55' E 023°06'0 0.0
2017-Mar-16 01:25N 37°55' E 023°06'0 0.0
2017-Mar-16 00:22N 37°55' E 023°06'0 0.1
2017-Mar-15 23:31N 37°55' E 023°06'0 0.0
2017-Mar-15 22:31N 37°55' E 023°06'0 0.0
2017-Mar-15 21:28N 37°55' E 023°06'0 0.0
2017-Mar-15 20:26N 37°55' E 023°06'0 0.0
2017-Mar-15 19:32N 37°55' E 023°06'0 0.0
2017-Mar-15 18:31N 37°55' E 023°06'0 0.0
2017-Mar-15 17:24N 37°55' E 023°06'0 0.0
2017-Mar-15 16:07N 37°55' E 023°06'0 0.0
2017-Mar-15 15:26N 37°55' E 023°06'0 0.0
2017-Mar-15 14:32N 37°55' E 023°06'0 0.0
2017-Mar-15 13:29N 37°55' E 023°06'0 0.0
2017-Mar-15 12:31N 37°55' E 023°06'0 0.0
2017-Mar-15 11:28N 37°55' E 023°06'0 0.0
2017-Mar-15 10:33N 37°55' E 023°06'0 0.0
2017-Mar-15 09:32N 37°55' E 023°06'0 0.0
2017-Mar-15 08:32N 37°55' E 023°06'0 0.0
2017-Mar-14 11:29N 37°55' E 023°06'0 0.0
2017-Mar-14 10:29N 37°55' E 023°06'0 0.0
2017-Mar-14 09:32N 37°55' E 023°06'0 0.0
2017-Mar-14 08:32N 37°55' E 023°06'0 0.0
2017-Mar-14 07:32N 37°55' E 023°06'0 0.1
2017-Mar-14 06:29N 37°55' E 023°06'0 0.1
2017-Mar-14 05:32N 37°55' E 023°06'0 0.0
2017-Mar-14 04:32N 37°55' E 023°06'0 0.0
2017-Mar-14 03:29N 37°55' E 023°06'0 0.0
2017-Mar-14 02:32N 37°55' E 023°06'0 0.0
2017-Mar-14 01:32N 37°55' E 023°06'0 0.1
2017-Mar-14 00:32N 37°55' E 023°06'0 0.1
2017-Mar-13 23:29N 37°55' E 023°06'0 0.0
2017-Mar-13 22:32N 37°55' E 023°06'0 0.0
2017-Mar-13 21:32N 37°55' E 023°06'0 0.0
2017-Mar-13 20:32N 37°55' E 023°06'0 0.0
2017-Mar-13 19:29N 37°55' E 023°06'0 0.0
2017-Mar-13 18:32N 37°55' E 023°06'  
Track history (hours):
 
Tides and Currents Weather Stations Pressure Air Temp Water Temp Dewpoint Dewpoint Depression Visibility Wind Speed Wind Dir Waves Ship Positions

Souda

Last reported at 2017-Mar-23 18:11 UTC. Time now 2017-Mar-30 00:48 UTC.
Position N 39°49' E 024°18'.

Length 88 m; draft 4.8 m.

Type: Tanker. MMSI: 241109000.

Date/timePositionNaut miles runAvg speedWind from/ knotsBaromVisibWave heightAir tempDewpointWater temp
2017-Mar-23 18:11N 39°49' E 024°18'6 9.0
2017-Mar-23 17:32N 39°50' E 024°10'9 9.5
2017-Mar-23 16:33N 39°51' E 023°59'10 9.3
2017-Mar-23 15:30N 39°52' E 023°46'  
2017-Mar-20 14:19N 37°43' E 023°41'6 8.3
2017-Mar-20 13:33N 37°48' E 023°36'9 8.4
2017-Mar-20 12:33N 37°50' E 023°26'8 8.2
2017-Mar-20 11:33N 37°52' E 023°16'9 0.4
2017-Mar-19 11:32N 37°55' E 023°05'0 0.1
2017-Mar-19 10:32N 37°55' E 023°05'1 0.8
2017-Mar-19 09:31N 37°55' E 023°06'0 0.0
2017-Mar-19 08:31N 37°55' E 023°06'0 0.0
2017-Mar-19 07:33N 37°55' E 023°06'0 0.1
2017-Mar-19 06:33N 37°55' E 023°06'0 0.1
2017-Mar-19 05:33N 37°55' E 023°06'0 0.0
2017-Mar-19 04:33N 37°55' E 023°06'0 0.0
2017-Mar-19 03:33N 37°55' E 023°06'0 0.0
2017-Mar-19 02:33N 37°55' E 023°06'0 0.0
2017-Mar-19 01:30N 37°55' E 023°06'0 0.0
2017-Mar-19 00:33N 37°55' E 023°06'0 0.0
2017-Mar-18 23:30N 37°55' E 023°06'0 0.0
2017-Mar-18 22:33N 37°55' E 023°06'0 0.0
2017-Mar-18 21:30N 37°55' E 023°06'0 0.0
2017-Mar-18 20:27N 37°55' E 023°06'0 0.0
2017-Mar-18 19:33N 37°55' E 023°06'0 0.1
2017-Mar-18 18:33N 37°55' E 023°06'0 0.0
2017-Mar-18 16:27N 37°55' E 023°06'0 0.0
2017-Mar-17 07:27N 37°55' E 023°06'0 0.0
2017-Mar-17 06:13N 37°55' E 023°06'0 0.0
2017-Mar-17 05:22N 37°55' E 023°06'0 0.0
2017-Mar-17 04:14N 37°55' E 023°06'0 0.0
2017-Mar-17 03:30N 37°55' E 023°06'0 0.0
2017-Mar-17 02:24N 37°55' E 023°06'0 0.0
2017-Mar-17 01:10N 37°55' E 023°06'0 0.1
2017-Mar-17 00:33N 37°55' E 023°06'0 0.0
2017-Mar-16 23:30N 37°55' E 023°06'0 0.0
2017-Mar-16 19:21N 37°55' E 023°06'0 0.0
2017-Mar-16 15:27N 37°55' E 023°06'0 0.1
2017-Mar-16 14:28N 37°55' E 023°06'0 0.0
2017-Mar-16 08:18N 37°55' E 023°06'0 0.0
2017-Mar-16 06:26N 37°55' E 023°06'0 0.0
2017-Mar-16 05:32N 37°55' E 023°06'0 0.0
2017-Mar-16 04:31N 37°55' E 023°06'0 0.0
2017-Mar-16 03:29N 37°55' E 023°06'0 0.0
2017-Mar-16 02:24N 37°55' E 023°06'0 0.0
2017-Mar-16 01:25N 37°55' E 023°06'0 0.0
2017-Mar-16 00:22N 37°55' E 023°06'0 0.1
2017-Mar-15 23:31N 37°55' E 023°06'0 0.0
2017-Mar-15 22:31N 37°55' E 023°06'0 0.0
2017-Mar-15 21:28N 37°55' E 023°06'0 0.0
2017-Mar-15 20:26N 37°55' E 023°06'0 0.0
2017-Mar-15 19:32N 37°55' E 023°06'0 0.0
2017-Mar-15 18:31N 37°55' E 023°06'0 0.0
2017-Mar-15 17:24N 37°55' E 023°06'0 0.0
2017-Mar-15 16:07N 37°55' E 023°06'0 0.0
2017-Mar-15 15:26N 37°55' E 023°06'0 0.0
2017-Mar-15 14:32N 37°55' E 023°06'0 0.0
2017-Mar-15 13:29N 37°55' E 023°06'0 0.0
2017-Mar-15 12:31N 37°55' E 023°06'0 0.0
2017-Mar-15 11:28N 37°55' E 023°06'0 0.0
2017-Mar-15 10:33N 37°55' E 023°06'0 0.0
2017-Mar-15 09:32N 37°55' E 023°06'0 0.0
2017-Mar-15 08:32N 37°55' E 023°06'0 0.0
2017-Mar-14 11:29N 37°55' E 023°06'0 0.0
2017-Mar-14 10:29N 37°55' E 023°06'0 0.0
2017-Mar-14 09:32N 37°55' E 023°06'0 0.0
2017-Mar-14 08:32N 37°55' E 023°06'0 0.0
2017-Mar-14 07:32N 37°55' E 023°06'0 0.1
2017-Mar-14 06:29N 37°55' E 023°06'0 0.1
2017-Mar-14 05:32N 37°55' E 023°06'0 0.0
2017-Mar-14 04:32N 37°55' E 023°06'0 0.0
2017-Mar-14 03:29N 37°55' E 023°06'0 0.0
2017-Mar-14 02:32N 37°55' E 023°06'0 0.0
2017-Mar-14 01:32N 37°55' E 023°06'0 0.1
2017-Mar-14 00:32N 37°55' E 023°06'0 0.1
2017-Mar-13 23:29N 37°55' E 023°06'0 0.0
2017-Mar-13 22:32N 37°55' E 023°06'0 0.0
2017-Mar-13 21:32N 37°55' E 023°06'0 0.0
2017-Mar-13 20:32N 37°55' E 023°06'0 0.0
2017-Mar-13 19:29N 37°55' E 023°06'0 0.0
2017-Mar-13 18:32N 37°55' E 023°06'  

Dump ship's entire track history